sensor_id;sensor_type;location;lat;lon;timestamp;P1;durP1;ratioP1;P2;durP2;ratioP2
62927;SDS011;51070;52.236;-0.892;2023-05-07T00:01:47;7.60;;;4.80;;
62927;SDS011;51070;52.236;-0.892;2023-05-07T00:04:13;9.80;;;5.10;;
62927;SDS011;51070;52.236;-0.892;2023-05-07T00:06:38;7.60;;;5.00;;
62927;SDS011;51070;52.236;-0.892;2023-05-07T00:09:05;7.40;;;4.90;;
62927;SDS011;51070;52.236;-0.892;2023-05-07T00:11:31;8.00;;;4.60;;
62927;SDS011;51070;52.236;-0.892;2023-05-07T00:13:57;6.10;;;5.30;;
62927;SDS011;51070;52.236;-0.892;2023-05-07T00:16:23;6.80;;;4.70;;
62927;SDS011;51070;52.236;-0.892;2023-05-07T00:18:48;7.20;;;5.20;;
62927;SDS011;51070;52.236;-0.892;2023-05-07T00:21:13;6.20;;;4.50;;
62927;SDS011;51070;52.236;-0.892;2023-05-07T00:23:39;9.70;;;5.70;;
62927;SDS011;51070;52.236;-0.892;2023-05-07T00:26:04;8.90;;;5.00;;
62927;SDS011;51070;52.236;-0.892;2023-05-07T00:28:30;7.00;;;4.80;;
62927;SDS011;51070;52.236;-0.892;2023-05-07T00:30:55;6.50;;;4.70;;
62927;SDS011;51070;52.236;-0.892;2023-05-07T00:33:21;7.70;;;4.40;;
62927;SDS011;51070;52.236;-0.892;2023-05-07T00:35:47;6.20;;;4.20;;
62927;SDS011;51070;52.236;-0.892;2023-05-07T00:38:13;8.70;;;4.50;;
62927;SDS011;51070;52.236;-0.892;2023-05-07T00:40:39;5.30;;;4.20;;
62927;SDS011;51070;52.236;-0.892;2023-05-07T00:43:04;5.50;;;4.60;;
62927;SDS011;51070;52.236;-0.892;2023-05-07T00:45:30;7.30;;;5.00;;
62927;SDS011;51070;52.236;-0.892;2023-05-07T00:47:56;8.10;;;5.00;;
62927;SDS011;51070;52.236;-0.892;2023-05-07T00:50:23;6.30;;;4.50;;
62927;SDS011;51070;52.236;-0.892;2023-05-07T00:52:49;7.30;;;4.90;;
62927;SDS011;51070;52.236;-0.892;2023-05-07T00:55:14;5.20;;;4.40;;
62927;SDS011;51070;52.236;-0.892;2023-05-07T00:57:40;6.60;;;4.50;;
62927;SDS011;51070;52.236;-0.892;2023-05-07T01:00:07;7.00;;;4.70;;
62927;SDS011;51070;52.236;-0.892;2023-05-07T01:02:37;6.10;;;4.20;;
62927;SDS011;51070;52.236;-0.892;2023-05-07T01:05:03;7.80;;;4.50;;
62927;SDS011;51070;52.236;-0.892;2023-05-07T01:07:31;7.20;;;4.80;;
62927;SDS011;51070;52.236;-0.892;2023-05-07T01:09:57;6.20;;;5.10;;
62927;SDS011;51070;52.236;-0.892;2023-05-07T01:12:23;7.10;;;5.00;;
62927;SDS011;51070;52.236;-0.892;2023-05-07T01:14:50;7.20;;;4.90;;
62927;SDS011;51070;52.236;-0.892;2023-05-07T01:17:16;7.50;;;5.60;;
62927;SDS011;51070;52.236;-0.892;2023-05-07T01:19:42;6.80;;;4.70;;
62927;SDS011;51070;52.236;-0.892;2023-05-07T01:22:09;5.70;;;5.00;;
62927;SDS011;51070;52.236;-0.892;2023-05-07T01:24:39;6.50;;;4.70;;
62927;SDS011;51070;52.236;-0.892;2023-05-07T01:27:05;7.10;;;5.60;;
62927;SDS011;51070;52.236;-0.892;2023-05-07T01:29:31;6.60;;;4.80;;
62927;SDS011;51070;52.236;-0.892;2023-05-07T01:31:57;6.10;;;5.30;;
62927;SDS011;51070;52.236;-0.892;2023-05-07T01:34:25;7.10;;;5.40;;
62927;SDS011;51070;52.236;-0.892;2023-05-07T01:36:53;7.90;;;6.10;;
62927;SDS011;51070;52.236;-0.892;2023-05-07T01:39:29;9.30;;;6.90;;
62927;SDS011;51070;52.236;-0.892;2023-05-07T01:41:56;8.60;;;6.10;;
62927;SDS011;51070;52.236;-0.892;2023-05-07T01:44:24;8.70;;;6.10;;
62927;SDS011;51070;52.236;-0.892;2023-05-07T01:46:50;11.40;;;7.30;;
62927;SDS011;51070;52.236;-0.892;2023-05-07T01:49:16;10.10;;;6.50;;
62927;SDS011;51070;52.236;-0.892;2023-05-07T01:51:42;8.90;;;6.80;;
62927;SDS011;51070;52.236;-0.892;2023-05-07T01:54:08;7.40;;;6.60;;
62927;SDS011;51070;52.236;-0.892;2023-05-07T01:56:34;10.90;;;7.00;;
62927;SDS011;51070;52.236;-0.892;2023-05-07T01:59:00;9.90;;;6.90;;
62927;SDS011;51070;52.236;-0.892;2023-05-07T02:01:27;11.40;;;7.10;;
62927;SDS011;51070;52.236;-0.892;2023-05-07T02:03:53;9.80;;;6.50;;
62927;SDS011;51070;52.236;-0.892;2023-05-07T02:06:19;9.60;;;6.50;;
62927;SDS011;51070;52.236;-0.892;2023-05-07T02:08:45;13.90;;;6.70;;
62927;SDS011;51070;52.236;-0.892;2023-05-07T02:11:11;11.10;;;7.00;;
62927;SDS011;51070;52.236;-0.892;2023-05-07T02:13:36;11.20;;;7.30;;
62927;SDS011;51070;52.236;-0.892;2023-05-07T02:16:02;9.80;;;7.20;;
62927;SDS011;51070;52.236;-0.892;2023-05-07T02:18:28;9.30;;;6.90;;
62927;SDS011;51070;52.236;-0.892;2023-05-07T02:20:54;11.60;;;7.40;;
62927;SDS011;51070;52.236;-0.892;2023-05-07T02:23:19;8.90;;;7.20;;
62927;SDS011;51070;52.236;-0.892;2023-05-07T02:25:45;10.80;;;7.80;;
62927;SDS011;51070;52.236;-0.892;2023-05-07T02:28:11;10.50;;;7.70;;
62927;SDS011;51070;52.236;-0.892;2023-05-07T02:30:37;10.40;;;8.00;;
62927;SDS011;51070;52.236;-0.892;2023-05-07T02:33:04;11.10;;;8.20;;
62927;SDS011;51070;52.236;-0.892;2023-05-07T02:35:29;11.60;;;8.50;;
62927;SDS011;51070;52.236;-0.892;2023-05-07T02:37:55;11.40;;;7.80;;
62927;SDS011;51070;52.236;-0.892;2023-05-07T02:40:20;9.10;;;7.30;;
62927;SDS011;51070;52.236;-0.892;2023-05-07T02:42:46;12.30;;;8.10;;
62927;SDS011;51070;52.236;-0.892;2023-05-07T02:45:11;12.10;;;7.50;;
62927;SDS011;51070;52.236;-0.892;2023-05-07T02:47:36;14.60;;;8.90;;
62927;SDS011;51070;52.236;-0.892;2023-05-07T02:50:02;10.90;;;8.10;;
62927;SDS011;51070;52.236;-0.892;2023-05-07T02:52:28;12.50;;;8.80;;
62927;SDS011;51070;52.236;-0.892;2023-05-07T02:54:54;13.40;;;8.80;;
62927;SDS011;51070;52.236;-0.892;2023-05-07T02:57:20;11.50;;;8.40;;
62927;SDS011;51070;52.236;-0.892;2023-05-07T02:59:45;16.10;;;11.40;;
62927;SDS011;51070;52.236;-0.892;2023-05-07T03:02:10;13.60;;;10.10;;
62927;SDS011;51070;52.236;-0.892;2023-05-07T03:04:36;12.50;;;9.30;;
62927;SDS011;51070;52.236;-0.892;2023-05-07T03:07:01;15.60;;;9.50;;
62927;SDS011;51070;52.236;-0.892;2023-05-07T03:09:26;16.00;;;9.60;;
62927;SDS011;51070;52.236;-0.892;2023-05-07T03:11:52;13.70;;;10.50;;
62927;SDS011;51070;52.236;-0.892;2023-05-07T03:14:17;17.10;;;11.10;;
62927;SDS011;51070;52.236;-0.892;2023-05-07T03:16:42;12.20;;;8.00;;
62927;SDS011;51070;52.236;-0.892;2023-05-07T03:19:08;16.90;;;11.30;;
62927;SDS011;51070;52.236;-0.892;2023-05-07T03:21:33;17.60;;;11.40;;
62927;SDS011;51070;52.236;-0.892;2023-05-07T03:23:59;16.30;;;10.60;;
62927;SDS011;51070;52.236;-0.892;2023-05-07T03:26:25;16.70;;;11.90;;
62927;SDS011;51070;52.236;-0.892;2023-05-07T03:28:51;18.50;;;11.40;;
62927;SDS011;51070;52.236;-0.892;2023-05-07T03:31:17;14.90;;;10.40;;
62927;SDS011;51070;52.236;-0.892;2023-05-07T03:33:56;16.00;;;11.50;;
62927;SDS011;51070;52.236;-0.892;2023-05-07T03:36:22;19.40;;;10.60;;
62927;SDS011;51070;52.236;-0.892;2023-05-07T03:38:48;16.00;;;11.50;;
62927;SDS011;51070;52.236;-0.892;2023-05-07T03:41:14;14.90;;;10.10;;
62927;SDS011;51070;52.236;-0.892;2023-05-07T03:43:40;18.50;;;11.60;;
62927;SDS011;51070;52.236;-0.892;2023-05-07T03:46:06;18.60;;;10.10;;
62927;SDS011;51070;52.236;-0.892;2023-05-07T03:48:31;20.90;;;12.00;;
62927;SDS011;51070;52.236;-0.892;2023-05-07T03:50:57;18.60;;;11.80;;
62927;SDS011;51070;52.236;-0.892;2023-05-07T03:53:23;16.20;;;11.40;;
62927;SDS011;51070;52.236;-0.892;2023-05-07T03:55:49;19.30;;;11.60;;
62927;SDS011;51070;52.236;-0.892;2023-05-07T03:58:14;17.10;;;11.90;;
62927;SDS011;51070;52.236;-0.892;2023-05-07T04:00:40;18.80;;;12.40;;
62927;SDS011;51070;52.236;-0.892;2023-05-07T04:03:06;17.50;;;12.50;;
62927;SDS011;51070;52.236;-0.892;2023-05-07T04:05:32;18.50;;;10.70;;
62927;SDS011;51070;52.236;-0.892;2023-05-07T04:07:58;20.20;;;13.00;;
62927;SDS011;51070;52.236;-0.892;2023-05-07T04:10:24;18.20;;;12.50;;
62927;SDS011;51070;52.236;-0.892;2023-05-07T04:12:50;19.80;;;12.70;;
62927;SDS011;51070;52.236;-0.892;2023-05-07T04:15:16;20.50;;;14.30;;
62927;SDS011;51070;52.236;-0.892;2023-05-07T04:17:41;23.80;;;14.10;;
62927;SDS011;51070;52.236;-0.892;2023-05-07T04:20:08;16.90;;;12.00;;
62927;SDS011;51070;52.236;-0.892;2023-05-07T04:22:35;16.90;;;12.20;;
62927;SDS011;51070;52.236;-0.892;2023-05-07T04:25:01;21.10;;;12.60;;
62927;SDS011;51070;52.236;-0.892;2023-05-07T04:27:27;20.10;;;12.70;;
62927;SDS011;51070;52.236;-0.892;2023-05-07T04:29:53;16.20;;;13.20;;
62927;SDS011;51070;52.236;-0.892;2023-05-07T04:32:21;16.10;;;11.80;;
62927;SDS011;51070;52.236;-0.892;2023-05-07T04:34:47;17.40;;;11.90;;
62927;SDS011;51070;52.236;-0.892;2023-05-07T04:37:12;15.90;;;12.00;;
62927;SDS011;51070;52.236;-0.892;2023-05-07T04:39:37;17.60;;;13.20;;
62927;SDS011;51070;52.236;-0.892;2023-05-07T04:42:03;15.90;;;12.10;;
62927;SDS011;51070;52.236;-0.892;2023-05-07T04:44:28;16.60;;;13.10;;
62927;SDS011;51070;52.236;-0.892;2023-05-07T04:46:56;17.70;;;11.60;;
62927;SDS011;51070;52.236;-0.892;2023-05-07T04:49:21;15.20;;;11.00;;
62927;SDS011;51070;52.236;-0.892;2023-05-07T04:51:47;15.80;;;11.10;;
62927;SDS011;51070;52.236;-0.892;2023-05-07T04:54:12;18.60;;;11.20;;
62927;SDS011;51070;52.236;-0.892;2023-05-07T04:56:37;16.10;;;11.40;;
62927;SDS011;51070;52.236;-0.892;2023-05-07T04:59:03;13.50;;;10.70;;
62927;SDS011;51070;52.236;-0.892;2023-05-07T05:01:28;15.40;;;11.70;;
62927;SDS011;51070;52.236;-0.892;2023-05-07T05:03:54;14.10;;;10.90;;
62927;SDS011;51070;52.236;-0.892;2023-05-07T05:06:19;13.90;;;10.40;;
62927;SDS011;51070;52.236;-0.892;2023-05-07T05:08:44;15.20;;;11.10;;
62927;SDS011;51070;52.236;-0.892;2023-05-07T05:11:10;15.50;;;11.50;;
62927;SDS011;51070;52.236;-0.892;2023-05-07T05:13:35;14.00;;;10.50;;
62927;SDS011;51070;52.236;-0.892;2023-05-07T05:16:01;15.90;;;11.30;;
62927;SDS011;51070;52.236;-0.892;2023-05-07T05:18:26;13.60;;;10.40;;
62927;SDS011;51070;52.236;-0.892;2023-05-07T05:20:51;15.10;;;10.70;;
62927;SDS011;51070;52.236;-0.892;2023-05-07T05:23:18;13.50;;;10.10;;
62927;SDS011;51070;52.236;-0.892;2023-05-07T05:25:44;11.50;;;8.40;;
62927;SDS011;51070;52.236;-0.892;2023-05-07T05:28:10;11.30;;;9.30;;
62927;SDS011;51070;52.236;-0.892;2023-05-07T05:30:35;12.00;;;8.20;;
62927;SDS011;51070;52.236;-0.892;2023-05-07T05:33:01;11.60;;;9.30;;
62927;SDS011;51070;52.236;-0.892;2023-05-07T05:35:26;11.80;;;8.60;;
62927;SDS011;51070;52.236;-0.892;2023-05-07T05:37:52;9.00;;;7.30;;
62927;SDS011;51070;52.236;-0.892;2023-05-07T05:40:17;9.60;;;8.10;;
62927;SDS011;51070;52.236;-0.892;2023-05-07T05:42:43;13.80;;;8.20;;
62927;SDS011;51070;52.236;-0.892;2023-05-07T05:45:08;8.10;;;6.40;;
62927;SDS011;51070;52.236;-0.892;2023-05-07T05:47:34;7.80;;;5.80;;
62927;SDS011;51070;52.236;-0.892;2023-05-07T05:50:00;9.00;;;7.20;;
62927;SDS011;51070;52.236;-0.892;2023-05-07T05:52:25;8.70;;;7.10;;
62927;SDS011;51070;52.236;-0.892;2023-05-07T05:54:50;7.70;;;6.50;;
62927;SDS011;51070;52.236;-0.892;2023-05-07T05:57:16;9.40;;;6.70;;
62927;SDS011;51070;52.236;-0.892;2023-05-07T05:59:41;10.60;;;9.00;;
62927;SDS011;51070;52.236;-0.892;2023-05-07T06:02:07;11.50;;;9.10;;
62927;SDS011;51070;52.236;-0.892;2023-05-07T06:04:33;10.70;;;8.30;;
62927;SDS011;51070;52.236;-0.892;2023-05-07T06:06:58;10.90;;;7.70;;
62927;SDS011;51070;52.236;-0.892;2023-05-07T06:09:23;15.20;;;10.50;;
62927;SDS011;51070;52.236;-0.892;2023-05-07T06:11:49;12.60;;;9.70;;
62927;SDS011;51070;52.236;-0.892;2023-05-07T06:14:14;12.90;;;9.20;;
62927;SDS011;51070;52.236;-0.892;2023-05-07T06:16:40;11.10;;;8.70;;
62927;SDS011;51070;52.236;-0.892;2023-05-07T06:19:05;10.90;;;9.30;;
62927;SDS011;51070;52.236;-0.892;2023-05-07T06:21:30;11.60;;;10.20;;
62927;SDS011;51070;52.236;-0.892;2023-05-07T06:23:56;11.80;;;9.60;;
62927;SDS011;51070;52.236;-0.892;2023-05-07T06:26:21;11.10;;;9.50;;
62927;SDS011;51070;52.236;-0.892;2023-05-07T06:28:47;11.20;;;9.20;;
62927;SDS011;51070;52.236;-0.892;2023-05-07T06:33:38;11.80;;;9.10;;
62927;SDS011;51070;52.236;-0.892;2023-05-07T06:36:04;14.30;;;10.20;;
62927;SDS011;51070;52.236;-0.892;2023-05-07T06:38:30;13.00;;;9.70;;
62927;SDS011;51070;52.236;-0.892;2023-05-07T06:40:55;11.80;;;9.30;;
62927;SDS011;51070;52.236;-0.892;2023-05-07T06:43:22;12.90;;;10.10;;
62927;SDS011;51070;52.236;-0.892;2023-05-07T06:45:47;12.00;;;9.80;;
62927;SDS011;51070;52.236;-0.892;2023-05-07T06:48:13;12.90;;;10.50;;
62927;SDS011;51070;52.236;-0.892;2023-05-07T06:50:38;12.40;;;10.60;;
62927;SDS011;51070;52.236;-0.892;2023-05-07T06:53:04;11.10;;;10.00;;
62927;SDS011;51070;52.236;-0.892;2023-05-07T06:55:29;10.70;;;9.60;;
62927;SDS011;51070;52.236;-0.892;2023-05-07T06:57:54;10.80;;;9.80;;
62927;SDS011;51070;52.236;-0.892;2023-05-07T07:00:20;11.70;;;10.60;;
62927;SDS011;51070;52.236;-0.892;2023-05-07T07:02:45;10.30;;;9.40;;
62927;SDS011;51070;52.236;-0.892;2023-05-07T07:05:10;11.30;;;10.30;;
62927;SDS011;51070;52.236;-0.892;2023-05-07T07:07:36;10.40;;;9.60;;
62927;SDS011;51070;52.236;-0.892;2023-05-07T07:10:01;10.20;;;9.40;;
62927;SDS011;51070;52.236;-0.892;2023-05-07T07:12:29;9.70;;;8.90;;
62927;SDS011;51070;52.236;-0.892;2023-05-07T07:14:55;10.80;;;9.90;;
62927;SDS011;51070;52.236;-0.892;2023-05-07T07:17:20;10.00;;;9.10;;
62927;SDS011;51070;52.236;-0.892;2023-05-07T07:19:45;10.50;;;9.60;;
62927;SDS011;51070;52.236;-0.892;2023-05-07T07:22:11;11.00;;;10.10;;
62927;SDS011;51070;52.236;-0.892;2023-05-07T07:24:36;11.90;;;10.70;;
62927;SDS011;51070;52.236;-0.892;2023-05-07T07:27:02;10.60;;;9.60;;
62927;SDS011;51070;52.236;-0.892;2023-05-07T07:29:27;11.40;;;10.30;;
62927;SDS011;51070;52.236;-0.892;2023-05-07T07:31:52;11.30;;;10.20;;
62927;SDS011;51070;52.236;-0.892;2023-05-07T07:34:18;11.70;;;10.50;;
62927;SDS011;51070;52.236;-0.892;2023-05-07T07:36:43;11.50;;;10.30;;
62927;SDS011;51070;52.236;-0.892;2023-05-07T07:39:09;10.10;;;9.10;;
62927;SDS011;51070;52.236;-0.892;2023-05-07T07:41:34;10.90;;;9.90;;
62927;SDS011;51070;52.236;-0.892;2023-05-07T07:44:00;11.10;;;9.70;;
62927;SDS011;51070;52.236;-0.892;2023-05-07T07:46:25;9.90;;;8.90;;
62927;SDS011;51070;52.236;-0.892;2023-05-07T07:48:51;10.20;;;9.20;;
62927;SDS011;51070;52.236;-0.892;2023-05-07T07:51:17;10.80;;;9.70;;
62927;SDS011;51070;52.236;-0.892;2023-05-07T07:53:42;11.00;;;9.90;;
62927;SDS011;51070;52.236;-0.892;2023-05-07T07:56:08;11.20;;;9.90;;
62927;SDS011;51070;52.236;-0.892;2023-05-07T07:58:34;10.40;;;9.40;;
62927;SDS011;51070;52.236;-0.892;2023-05-07T08:01:00;8.80;;;8.00;;
62927;SDS011;51070;52.236;-0.892;2023-05-07T08:03:26;9.20;;;8.40;;
62927;SDS011;51070;52.236;-0.892;2023-05-07T08:05:52;8.90;;;8.10;;
62927;SDS011;51070;52.236;-0.892;2023-05-07T08:08:17;8.50;;;7.70;;
62927;SDS011;51070;52.236;-0.892;2023-05-07T08:10:43;9.80;;;8.90;;
62927;SDS011;51070;52.236;-0.892;2023-05-07T08:13:09;8.90;;;8.20;;
62927;SDS011;51070;52.236;-0.892;2023-05-07T08:15:34;9.40;;;8.50;;
62927;SDS011;51070;52.236;-0.892;2023-05-07T08:18:01;8.50;;;7.60;;
62927;SDS011;51070;52.236;-0.892;2023-05-07T08:20:27;9.40;;;8.50;;
62927;SDS011;51070;52.236;-0.892;2023-05-07T08:22:54;10.10;;;9.10;;
62927;SDS011;51070;52.236;-0.892;2023-05-07T08:25:19;8.60;;;7.70;;
62927;SDS011;51070;52.236;-0.892;2023-05-07T08:27:45;8.30;;;7.50;;
62927;SDS011;51070;52.236;-0.892;2023-05-07T08:30:10;9.20;;;8.30;;
62927;SDS011;51070;52.236;-0.892;2023-05-07T08:32:36;9.20;;;7.90;;
62927;SDS011;51070;52.236;-0.892;2023-05-07T08:35:02;8.60;;;7.80;;
62927;SDS011;51070;52.236;-0.892;2023-05-07T08:37:27;8.90;;;8.00;;
62927;SDS011;51070;52.236;-0.892;2023-05-07T08:39:52;8.70;;;7.80;;
62927;SDS011;51070;52.236;-0.892;2023-05-07T08:42:18;9.20;;;7.40;;
62927;SDS011;51070;52.236;-0.892;2023-05-07T08:44:45;8.70;;;7.50;;
62927;SDS011;51070;52.236;-0.892;2023-05-07T08:47:13;9.50;;;8.00;;
62927;SDS011;51070;52.236;-0.892;2023-05-07T08:49:39;9.60;;;8.60;;
62927;SDS011;51070;52.236;-0.892;2023-05-07T08:52:05;8.50;;;7.60;;
62927;SDS011;51070;52.236;-0.892;2023-05-07T08:54:31;9.60;;;8.60;;
62927;SDS011;51070;52.236;-0.892;2023-05-07T08:56:57;7.50;;;6.60;;
62927;SDS011;51070;52.236;-0.892;2023-05-07T08:59:22;8.10;;;7.30;;
62927;SDS011;51070;52.236;-0.892;2023-05-07T09:01:48;6.90;;;5.90;;
62927;SDS011;51070;52.236;-0.892;2023-05-07T09:04:13;7.60;;;6.90;;
62927;SDS011;51070;52.236;-0.892;2023-05-07T09:06:39;7.50;;;6.80;;
62927;SDS011;51070;52.236;-0.892;2023-05-07T09:09:07;6.40;;;5.80;;
62927;SDS011;51070;52.236;-0.892;2023-05-07T09:11:32;8.90;;;6.60;;
62927;SDS011;51070;52.236;-0.892;2023-05-07T09:13:58;7.60;;;6.90;;
62927;SDS011;51070;52.236;-0.892;2023-05-07T09:16:26;8.20;;;6.90;;
62927;SDS011;51070;52.236;-0.892;2023-05-07T09:18:54;8.00;;;7.20;;
62927;SDS011;51070;52.236;-0.892;2023-05-07T09:21:22;7.40;;;6.60;;
62927;SDS011;51070;52.236;-0.892;2023-05-07T09:23:51;7.30;;;6.40;;
62927;SDS011;51070;52.236;-0.892;2023-05-07T09:26:18;7.10;;;6.30;;
62927;SDS011;51070;52.236;-0.892;2023-05-07T09:28:43;7.60;;;6.90;;
62927;SDS011;51070;52.236;-0.892;2023-05-07T09:31:11;7.30;;;6.60;;
62927;SDS011;51070;52.236;-0.892;2023-05-07T09:33:37;8.70;;;7.80;;
62927;SDS011;51070;52.236;-0.892;2023-05-07T09:36:03;8.10;;;7.20;;
62927;SDS011;51070;52.236;-0.892;2023-05-07T09:38:30;8.50;;;6.70;;
62927;SDS011;51070;52.236;-0.892;2023-05-07T09:43:31;9.10;;;8.00;;
62927;SDS011;51070;52.236;-0.892;2023-05-07T09:46:01;9.20;;;8.00;;
62927;SDS011;51070;52.236;-0.892;2023-05-07T09:48:29;7.40;;;6.50;;
62927;SDS011;51070;52.236;-0.892;2023-05-07T09:50:55;9.60;;;8.00;;
62927;SDS011;51070;52.236;-0.892;2023-05-07T09:53:25;8.20;;;7.30;;
62927;SDS011;51070;52.236;-0.892;2023-05-07T09:55:51;8.90;;;7.90;;
62927;SDS011;51070;52.236;-0.892;2023-05-07T09:58:17;9.00;;;7.60;;
62927;SDS011;51070;52.236;-0.892;2023-05-07T10:00:44;10.10;;;8.00;;
62927;SDS011;51070;52.236;-0.892;2023-05-07T10:03:10;9.70;;;8.00;;
62927;SDS011;51070;52.236;-0.892;2023-05-07T10:05:37;8.30;;;7.20;;
62927;SDS011;51070;52.236;-0.892;2023-05-07T10:08:04;8.70;;;7.00;;
62927;SDS011;51070;52.236;-0.892;2023-05-07T10:10:32;8.60;;;6.10;;
62927;SDS011;51070;52.236;-0.892;2023-05-07T10:12:58;8.40;;;6.90;;
62927;SDS011;51070;52.236;-0.892;2023-05-07T10:15:24;8.60;;;7.20;;
62927;SDS011;51070;52.236;-0.892;2023-05-07T10:17:50;8.70;;;6.60;;
62927;SDS011;51070;52.236;-0.892;2023-05-07T10:20:18;9.10;;;7.00;;
62927;SDS011;51070;52.236;-0.892;2023-05-07T10:22:45;10.80;;;6.70;;
62927;SDS011;51070;52.236;-0.892;2023-05-07T10:27:47;7.80;;;6.30;;
62927;SDS011;51070;52.236;-0.892;2023-05-07T10:30:26;7.90;;;6.20;;
62927;SDS011;51070;52.236;-0.892;2023-05-07T10:33:01;7.20;;;5.80;;
62927;SDS011;51070;52.236;-0.892;2023-05-07T10:35:31;7.30;;;6.40;;
62927;SDS011;51070;52.236;-0.892;2023-05-07T10:38:03;8.50;;;6.50;;
62927;SDS011;51070;52.236;-0.892;2023-05-07T10:40:30;7.20;;;5.80;;
62927;SDS011;51070;52.236;-0.892;2023-05-07T10:42:57;8.60;;;6.40;;
62927;SDS011;51070;52.236;-0.892;2023-05-07T10:45:27;8.60;;;7.10;;
62927;SDS011;51070;52.236;-0.892;2023-05-07T10:48:07;8.30;;;6.70;;
62927;SDS011;51070;52.236;-0.892;2023-05-07T10:50:34;6.90;;;6.20;;
62927;SDS011;51070;52.236;-0.892;2023-05-07T10:55:44;12.10;;;6.80;;
62927;SDS011;51070;52.236;-0.892;2023-05-07T11:00:57;8.70;;;6.00;;
62927;SDS011;51070;52.236;-0.892;2023-05-07T11:03:24;7.60;;;5.90;;
62927;SDS011;51070;52.236;-0.892;2023-05-07T11:08:55;6.90;;;5.60;;
62927;SDS011;51070;52.236;-0.892;2023-05-07T11:14:09;7.30;;;5.80;;
62927;SDS011;51070;52.236;-0.892;2023-05-07T11:16:35;9.30;;;6.30;;
62927;SDS011;51070;52.236;-0.892;2023-05-07T11:19:03;9.40;;;6.30;;
62927;SDS011;51070;52.236;-0.892;2023-05-07T11:23:58;6.40;;;5.50;;
62927;SDS011;51070;52.236;-0.892;2023-05-07T11:26:25;6.70;;;5.40;;
62927;SDS011;51070;52.236;-0.892;2023-05-07T11:28:51;6.10;;;5.00;;
62927;SDS011;51070;52.236;-0.892;2023-05-07T11:31:22;6.60;;;5.10;;
62927;SDS011;51070;52.236;-0.892;2023-05-07T11:33:49;6.70;;;4.10;;
62927;SDS011;51070;52.236;-0.892;2023-05-07T11:36:14;5.80;;;4.20;;
62927;SDS011;51070;52.236;-0.892;2023-05-07T11:38:40;7.30;;;4.10;;
62927;SDS011;51070;52.236;-0.892;2023-05-07T11:41:07;4.50;;;3.40;;
62927;SDS011;51070;52.236;-0.892;2023-05-07T11:43:33;8.20;;;3.70;;
62927;SDS011;51070;52.236;-0.892;2023-05-07T11:46:10;5.50;;;3.50;;
62927;SDS011;51070;52.236;-0.892;2023-05-07T11:48:37;4.70;;;3.30;;
62927;SDS011;51070;52.236;-0.892;2023-05-07T11:51:04;6.40;;;3.40;;
62927;SDS011;51070;52.236;-0.892;2023-05-07T11:53:37;4.30;;;3.10;;
62927;SDS011;51070;52.236;-0.892;2023-05-07T11:56:08;3.50;;;2.40;;
62927;SDS011;51070;52.236;-0.892;2023-05-07T11:58:36;4.70;;;3.20;;
62927;SDS011;51070;52.236;-0.892;2023-05-07T12:01:02;5.00;;;2.80;;
62927;SDS011;51070;52.236;-0.892;2023-05-07T12:03:28;4.60;;;3.50;;
62927;SDS011;51070;52.236;-0.892;2023-05-07T12:05:53;7.00;;;4.50;;
62927;SDS011;51070;52.236;-0.892;2023-05-07T12:08:19;4.10;;;3.00;;
62927;SDS011;51070;52.236;-0.892;2023-05-07T12:10:50;4.80;;;2.80;;
62927;SDS011;51070;52.236;-0.892;2023-05-07T12:13:17;4.70;;;2.60;;
62927;SDS011;51070;52.236;-0.892;2023-05-07T12:15:43;4.40;;;2.90;;
62927;SDS011;51070;52.236;-0.892;2023-05-07T12:18:08;5.40;;;2.90;;
62927;SDS011;51070;52.236;-0.892;2023-05-07T12:20:35;4.80;;;2.90;;
62927;SDS011;51070;52.236;-0.892;2023-05-07T12:23:02;7.20;;;4.40;;
62927;SDS011;51070;52.236;-0.892;2023-05-07T12:25:34;7.30;;;5.40;;
62927;SDS011;51070;52.236;-0.892;2023-05-07T12:28:04;5.40;;;3.90;;
62927;SDS011;51070;52.236;-0.892;2023-05-07T12:30:39;5.90;;;3.70;;
62927;SDS011;51070;52.236;-0.892;2023-05-07T12:33:05;5.00;;;2.80;;
62927;SDS011;51070;52.236;-0.892;2023-05-07T12:35:41;2.90;;;2.30;;
62927;SDS011;51070;52.236;-0.892;2023-05-07T12:38:09;4.30;;;2.30;;
62927;SDS011;51070;52.236;-0.892;2023-05-07T12:40:39;3.30;;;2.00;;
62927;SDS011;51070;52.236;-0.892;2023-05-07T12:43:07;3.90;;;2.10;;
62927;SDS011;51070;52.236;-0.892;2023-05-07T12:45:40;6.60;;;4.50;;
62927;SDS011;51070;52.236;-0.892;2023-05-07T12:48:06;5.60;;;2.70;;
62927;SDS011;51070;52.236;-0.892;2023-05-07T12:50:35;4.20;;;2.10;;
62927;SDS011;51070;52.236;-0.892;2023-05-07T12:53:00;3.50;;;2.20;;
62927;SDS011;51070;52.236;-0.892;2023-05-07T12:55:31;4.20;;;1.90;;
62927;SDS011;51070;52.236;-0.892;2023-05-07T12:57:57;3.50;;;2.10;;
62927;SDS011;51070;52.236;-0.892;2023-05-07T13:00:33;5.80;;;3.90;;
62927;SDS011;51070;52.236;-0.892;2023-05-07T13:02:59;3.20;;;1.70;;
62927;SDS011;51070;52.236;-0.892;2023-05-07T13:05:25;4.30;;;2.30;;
62927;SDS011;51070;52.236;-0.892;2023-05-07T13:07:53;2.90;;;1.60;;
62927;SDS011;51070;52.236;-0.892;2023-05-07T13:10:19;2.40;;;1.60;;
62927;SDS011;51070;52.236;-0.892;2023-05-07T13:12:45;4.20;;;1.90;;
62927;SDS011;51070;52.236;-0.892;2023-05-07T13:15:10;4.50;;;1.80;;
62927;SDS011;51070;52.236;-0.892;2023-05-07T13:17:36;6.20;;;2.10;;
62927;SDS011;51070;52.236;-0.892;2023-05-07T13:20:01;5.40;;;2.00;;
62927;SDS011;51070;52.236;-0.892;2023-05-07T13:22:26;7.50;;;4.40;;
62927;SDS011;51070;52.236;-0.892;2023-05-07T13:24:52;5.60;;;3.00;;
62927;SDS011;51070;52.236;-0.892;2023-05-07T13:27:17;7.00;;;4.50;;
62927;SDS011;51070;52.236;-0.892;2023-05-07T13:29:44;6.10;;;2.90;;
62927;SDS011;51070;52.236;-0.892;2023-05-07T13:32:10;3.80;;;2.40;;
62927;SDS011;51070;52.236;-0.892;2023-05-07T13:34:35;2.80;;;1.80;;
62927;SDS011;51070;52.236;-0.892;2023-05-07T13:37:01;3.50;;;1.60;;
62927;SDS011;51070;52.236;-0.892;2023-05-07T13:39:27;2.20;;;1.40;;
62927;SDS011;51070;52.236;-0.892;2023-05-07T13:41:52;3.20;;;1.40;;
62927;SDS011;51070;52.236;-0.892;2023-05-07T13:44:18;2.30;;;1.40;;
62927;SDS011;51070;52.236;-0.892;2023-05-07T13:46:43;5.00;;;1.40;;
62927;SDS011;51070;52.236;-0.892;2023-05-07T13:49:08;3.60;;;1.40;;
62927;SDS011;51070;52.236;-0.892;2023-05-07T13:51:36;2.70;;;1.50;;
62927;SDS011;51070;52.236;-0.892;2023-05-07T13:54:01;2.70;;;1.30;;
62927;SDS011;51070;52.236;-0.892;2023-05-07T13:56:30;2.10;;;1.10;;
62927;SDS011;51070;52.236;-0.892;2023-05-07T13:58:57;1.30;;;1.00;;
62927;SDS011;51070;52.236;-0.892;2023-05-07T14:01:23;2.30;;;1.30;;
62927;SDS011;51070;52.236;-0.892;2023-05-07T14:03:48;1.60;;;1.00;;
62927;SDS011;51070;52.236;-0.892;2023-05-07T14:06:13;1.30;;;0.90;;
62927;SDS011;51070;52.236;-0.892;2023-05-07T14:08:39;1.60;;;1.10;;
62927;SDS011;51070;52.236;-0.892;2023-05-07T14:11:04;2.30;;;1.10;;
62927;SDS011;51070;52.236;-0.892;2023-05-07T14:13:31;3.50;;;1.10;;
62927;SDS011;51070;52.236;-0.892;2023-05-07T14:15:56;1.80;;;1.30;;
62927;SDS011;51070;52.236;-0.892;2023-05-07T14:18:22;4.30;;;1.20;;
62927;SDS011;51070;52.236;-0.892;2023-05-07T14:20:48;2.00;;;1.20;;
62927;SDS011;51070;52.236;-0.892;2023-05-07T14:23:14;1.60;;;0.90;;
62927;SDS011;51070;52.236;-0.892;2023-05-07T14:25:40;2.90;;;1.20;;
62927;SDS011;51070;52.236;-0.892;2023-05-07T14:28:08;3.60;;;1.60;;
62927;SDS011;51070;52.236;-0.892;2023-05-07T14:30:33;2.20;;;1.20;;
62927;SDS011;51070;52.236;-0.892;2023-05-07T14:32:59;2.00;;;1.10;;
62927;SDS011;51070;52.236;-0.892;2023-05-07T14:35:24;1.60;;;1.00;;
62927;SDS011;51070;52.236;-0.892;2023-05-07T14:37:49;2.30;;;1.00;;
62927;SDS011;51070;52.236;-0.892;2023-05-07T14:40:15;2.40;;;1.30;;
62927;SDS011;51070;52.236;-0.892;2023-05-07T14:42:40;3.20;;;1.10;;